sensor_id;sensor_type;location;lat;lon;timestamp;pressure;altitude;pressure_sealevel;temperature;humidity
63343;BME280;49465;57.664;39.686;2023-09-30T00:00:33;100646.88;;;14.65;43.78
63343;BME280;49465;57.664;39.686;2023-09-30T00:03:01;100647.09;;;14.61;43.81
63343;BME280;49465;57.664;39.686;2023-09-30T00:05:28;100646.47;;;14.58;44.18
63343;BME280;49465;57.664;39.686;2023-09-30T00:08:01;100641.41;;;14.55;44.22
63343;BME280;49465;57.664;39.686;2023-09-30T00:10:27;100643.44;;;14.51;43.85
63343;BME280;49465;57.664;39.686;2023-09-30T00:12:56;100640.06;;;14.49;43.84
63343;BME280;49465;57.664;39.686;2023-09-30T00:15:24;100643.91;;;14.45;44.15
63343;BME280;49465;57.664;39.686;2023-09-30T00:17:59;100642.22;;;14.44;43.75
63343;BME280;49465;57.664;39.686;2023-09-30T00:20:29;100639.81;;;14.41;44.23
63343;BME280;49465;57.664;39.686;2023-09-30T00:22:58;100643.66;;;14.37;43.82
63343;BME280;49465;57.664;39.686;2023-09-30T00:25:24;100641.31;;;14.32;43.80
63343;BME280;49465;57.664;39.686;2023-09-30T00:27:53;100637.97;;;14.30;43.97
63343;BME280;49465;57.664;39.686;2023-09-30T00:30:28;100642.63;;;14.27;43.97
63343;BME280;49465;57.664;39.686;2023-09-30T00:32:54;100644.66;;;14.23;44.15
63343;BME280;49465;57.664;39.686;2023-09-30T00:35:21;100641.28;;;14.21;44.06
63343;BME280;49465;57.664;39.686;2023-09-30T00:37:47;100645.81;;;14.19;44.10
63343;BME280;49465;57.664;39.686;2023-09-30T00:40:19;100644.25;;;14.16;44.15
63343;BME280;49465;57.664;39.686;2023-09-30T00:42:45;100639.09;;;14.15;43.79
63343;BME280;49465;57.664;39.686;2023-09-30T00:45:12;100643.53;;;14.14;44.27
63343;BME280;49465;57.664;39.686;2023-09-30T00:47:41;100644.72;;;14.10;43.83
63343;BME280;49465;57.664;39.686;2023-09-30T00:50:09;100634.38;;;14.07;43.82
63343;BME280;49465;57.664;39.686;2023-09-30T00:52:38;100635.47;;;14.04;44.10
63343;BME280;49465;57.664;39.686;2023-09-30T00:55:04;100642.53;;;14.04;44.13
63343;BME280;49465;57.664;39.686;2023-09-30T00:57:31;100639.19;;;14.02;44.07
63343;BME280;49465;57.664;39.686;2023-09-30T01:00:00;100636.66;;;14.00;43.88
63343;BME280;49465;57.664;39.686;2023-09-30T01:02:32;100635.09;;;13.98;44.11
63343;BME280;49465;57.664;39.686;2023-09-30T01:05:03;100629.09;;;13.96;43.83
63343;BME280;49465;57.664;39.686;2023-09-30T01:07:40;100628.34;;;13.94;43.90
63343;BME280;49465;57.664;39.686;2023-09-30T01:10:11;100632.03;;;13.91;43.98
63343;BME280;49465;57.664;39.686;2023-09-30T01:12:44;100631.41;;;13.88;43.83
63343;BME280;49465;57.664;39.686;2023-09-30T01:15:10;100627.22;;;13.85;44.01
63343;BME280;49465;57.664;39.686;2023-09-30T01:17:39;100630.09;;;13.82;44.18
63343;BME280;49465;57.664;39.686;2023-09-30T01:20:08;100631.13;;;13.79;44.11
63343;BME280;49465;57.664;39.686;2023-09-30T01:22:42;100622.59;;;13.76;43.81
63343;BME280;49465;57.664;39.686;2023-09-30T01:25:10;100622.84;;;13.73;44.02
63343;BME280;49465;57.664;39.686;2023-09-30T01:27:37;100616.00;;;13.70;43.95
63343;BME280;49465;57.664;39.686;2023-09-30T01:30:06;100618.03;;;13.67;43.80
63343;BME280;49465;57.664;39.686;2023-09-30T01:32:38;100615.59;;;13.63;44.00
63343;BME280;49465;57.664;39.686;2023-09-30T01:35:10;100617.50;;;13.61;43.91
63343;BME280;49465;57.664;39.686;2023-09-30T01:37:42;100612.47;;;13.58;44.16
63343;BME280;49465;57.664;39.686;2023-09-30T01:40:11;100624.03;;;13.56;43.92
63343;BME280;49465;57.664;39.686;2023-09-30T01:42:44;100619.00;;;13.53;44.07
63343;BME280;49465;57.664;39.686;2023-09-30T01:45:15;100616.47;;;13.51;44.13
63343;BME280;49465;57.664;39.686;2023-09-30T01:47:46;100615.75;;;13.49;44.15
63343;BME280;49465;57.664;39.686;2023-09-30T01:50:18;100608.91;;;13.47;43.89
63343;BME280;49465;57.664;39.686;2023-09-30T01:52:52;100608.28;;;13.43;43.86
63343;BME280;49465;57.664;39.686;2023-09-30T01:55:23;100603.97;;;13.42;43.87
63343;BME280;49465;57.664;39.686;2023-09-30T01:57:57;100596.28;;;13.39;44.11
63343;BME280;49465;57.664;39.686;2023-09-30T02:00:26;100597.34;;;13.36;44.12
63343;BME280;49465;57.664;39.686;2023-09-30T02:02:57;100602.69;;;13.35;43.94
63343;BME280;49465;57.664;39.686;2023-09-30T02:05:26;100595.03;;;13.32;44.07
63343;BME280;49465;57.664;39.686;2023-09-30T02:07:57;100591.75;;;13.28;43.93
63343;BME280;49465;57.664;39.686;2023-09-30T02:10:32;100597.13;;;13.26;44.09
63343;BME280;49465;57.664;39.686;2023-09-30T02:13:03;100586.72;;;13.25;44.07
63343;BME280;49465;57.664;39.686;2023-09-30T02:15:34;100599.00;;;13.24;44.11
63343;BME280;49465;57.664;39.686;2023-09-30T02:18:03;100593.84;;;13.23;43.96
63343;BME280;49465;57.664;39.686;2023-09-30T02:20:34;100593.13;;;13.21;44.01
63343;BME280;49465;57.664;39.686;2023-09-30T02:23:00;100592.38;;;13.19;43.98
63343;BME280;49465;57.664;39.686;2023-09-30T02:25:30;100592.53;;;13.17;43.92
63343;BME280;49465;57.664;39.686;2023-09-30T02:28:01;100596.09;;;13.16;44.03
63343;BME280;49465;57.664;39.686;2023-09-30T02:30:27;100591.88;;;13.14;43.84
63343;BME280;49465;57.664;39.686;2023-09-30T02:32:53;100580.53;;;13.13;44.03
63343;BME280;49465;57.664;39.686;2023-09-30T02:35:22;100584.09;;;13.12;43.88
63343;BME280;49465;57.664;39.686;2023-09-30T02:37:50;100577.25;;;13.10;43.87
63343;BME280;49465;57.664;39.686;2023-09-30T02:40:20;100582.63;;;13.08;43.97
63343;BME280;49465;57.664;39.686;2023-09-30T02:42:46;100577.47;;;13.06;43.96
63343;BME280;49465;57.664;39.686;2023-09-30T02:45:15;100580.31;;;13.03;44.04
63343;BME280;49465;57.664;39.686;2023-09-30T02:47:43;100578.72;;;13.01;43.92
63343;BME280;49465;57.664;39.686;2023-09-30T02:50:12;100576.19;;;12.99;44.02
63343;BME280;49465;57.664;39.686;2023-09-30T02:52:40;100577.16;;;12.98;43.89
63343;BME280;49465;57.664;39.686;2023-09-30T02:55:12;100572.00;;;12.97;43.99
63343;BME280;49465;57.664;39.686;2023-09-30T02:57:40;100571.16;;;12.96;44.23
63343;BME280;49465;57.664;39.686;2023-09-30T03:00:08;100563.38;;;12.95;43.95
63343;BME280;49465;57.664;39.686;2023-09-30T03:02:50;100561.81;;;12.92;44.00
63343;BME280;49465;57.664;39.686;2023-09-30T03:05:19;100566.09;;;12.93;44.06
63343;BME280;49465;57.664;39.686;2023-09-30T03:07:46;100568.75;;;12.93;43.96
63343;BME280;49465;57.664;39.686;2023-09-30T03:10:12;100563.47;;;12.93;43.92
63343;BME280;49465;57.664;39.686;2023-09-30T03:12:40;100560.97;;;12.92;43.98
63343;BME280;49465;57.664;39.686;2023-09-30T03:15:08;100568.00;;;12.91;43.87
63343;BME280;49465;57.664;39.686;2023-09-30T03:17:37;100561.91;;;12.91;43.99
63343;BME280;49465;57.664;39.686;2023-09-30T03:20:12;100564.63;;;12.89;43.84
63343;BME280;49465;57.664;39.686;2023-09-30T03:22:47;100548.84;;;12.89;43.80
63343;BME280;49465;57.664;39.686;2023-09-30T03:25:20;100555.06;;;12.88;43.99
63343;BME280;49465;57.664;39.686;2023-09-30T03:27:46;100553.38;;;12.87;43.88
63343;BME280;49465;57.664;39.686;2023-09-30T03:30:17;100551.72;;;12.86;43.92
63343;BME280;49465;57.664;39.686;2023-09-30T03:32:48;100555.28;;;12.85;43.91
63343;BME280;49465;57.664;39.686;2023-09-30T03:35:16;100554.34;;;12.86;44.01
63343;BME280;49465;57.664;39.686;2023-09-30T03:37:43;100549.19;;;12.84;43.93
63343;BME280;49465;57.664;39.686;2023-09-30T03:40:13;100556.97;;;12.86;43.87
63343;BME280;49465;57.664;39.686;2023-09-30T03:42:53;100557.91;;;12.85;43.57
63343;BME280;49465;57.664;39.686;2023-09-30T03:45:31;100558.88;;;12.84;43.73
63343;BME280;49465;57.664;39.686;2023-09-30T03:48:00;100559.72;;;12.84;43.94
63343;BME280;49465;57.664;39.686;2023-09-30T03:50:30;100564.13;;;12.84;43.83
63343;BME280;49465;57.664;39.686;2023-09-30T03:53:05;100559.81;;;12.83;43.64
63343;BME280;49465;57.664;39.686;2023-09-30T03:55:35;100557.19;;;12.83;43.93
63343;BME280;49465;57.664;39.686;2023-09-30T03:58:03;100553.72;;;12.82;43.85
63343;BME280;49465;57.664;39.686;2023-09-30T04:00:30;100552.88;;;12.82;43.76
63343;BME280;49465;57.664;39.686;2023-09-30T04:03:01;100556.44;;;12.81;43.82
63343;BME280;49465;57.664;39.686;2023-09-30T04:05:31;100553.81;;;12.81;43.86
63343;BME280;49465;57.664;39.686;2023-09-30T04:08:02;100552.00;;;12.81;43.86
63343;BME280;49465;57.664;39.686;2023-09-30T04:10:28;100551.06;;;12.82;43.95
63343;BME280;49465;57.664;39.686;2023-09-30T04:13:03;100553.59;;;12.84;43.63
63343;BME280;49465;57.664;39.686;2023-09-30T04:15:31;100555.28;;;12.85;43.84
63343;BME280;49465;57.664;39.686;2023-09-30T04:17:57;100553.38;;;12.87;43.89
63343;BME280;49465;57.664;39.686;2023-09-30T04:20:26;100544.56;;;12.88;44.00
63343;BME280;49465;57.664;39.686;2023-09-30T04:22:58;100545.28;;;12.90;43.99
63343;BME280;49465;57.664;39.686;2023-09-30T04:25:32;100550.44;;;12.92;43.92
63343;BME280;49465;57.664;39.686;2023-09-30T04:28:01;100554.66;;;12.94;43.91
63343;BME280;49465;57.664;39.686;2023-09-30T04:30:30;100558.84;;;12.97;43.91
63343;BME280;49465;57.664;39.686;2023-09-30T04:33:01;100555.88;;;13.01;43.93
63343;BME280;49465;57.664;39.686;2023-09-30T04:35:33;100552.09;;;13.05;43.90
63343;BME280;49465;57.664;39.686;2023-09-30T04:38:01;100549.03;;;13.12;43.76
63343;BME280;49465;57.664;39.686;2023-09-30T04:40:30;100541.75;;;13.15;43.81
63343;BME280;49465;57.664;39.686;2023-09-30T04:42:56;100557.31;;;13.18;43.89
63343;BME280;49465;57.664;39.686;2023-09-30T04:45:29;100552.69;;;13.22;43.65
63343;BME280;49465;57.664;39.686;2023-09-30T04:48:06;100559.41;;;13.26;43.61
63343;BME280;49465;57.664;39.686;2023-09-30T04:50:32;100550.44;;;13.29;43.77
63343;BME280;49465;57.664;39.686;2023-09-30T04:53:01;100551.94;;;13.33;43.62
63343;BME280;49465;57.664;39.686;2023-09-30T04:55:35;100553.19;;;13.40;43.75
63343;BME280;49465;57.664;39.686;2023-09-30T04:58:04;100551.06;;;13.45;43.87
63343;BME280;49465;57.664;39.686;2023-09-30T05:00:34;100558.53;;;13.51;43.62
63343;BME280;49465;57.664;39.686;2023-09-30T05:03:08;100557.25;;;13.57;43.70
63343;BME280;49465;57.664;39.686;2023-09-30T05:05:53;100555.81;;;13.64;43.91
63343;BME280;49465;57.664;39.686;2023-09-30T05:08:26;100555.28;;;13.72;43.80
63343;BME280;49465;57.664;39.686;2023-09-30T05:10:57;100544.41;;;13.76;43.92
63343;BME280;49465;57.664;39.686;2023-09-30T05:13:30;100549.84;;;13.86;43.65
63343;BME280;49465;57.664;39.686;2023-09-30T05:16:13;100544.00;;;13.94;43.73
63343;BME280;49465;57.664;39.686;2023-09-30T05:18:42;100550.47;;;14.01;43.62
63343;BME280;49465;57.664;39.686;2023-09-30T05:21:14;100541.16;;;14.08;43.72
63343;BME280;49465;57.664;39.686;2023-09-30T05:23:41;100548.50;;;14.16;43.71
63343;BME280;49465;57.664;39.686;2023-09-30T05:26:13;100548.88;;;14.22;43.77
63343;BME280;49465;57.664;39.686;2023-09-30T05:28:47;100548.19;;;14.32;43.75
63343;BME280;49465;57.664;39.686;2023-09-30T05:31:18;100551.91;;;14.40;43.64
63343;BME280;49465;57.664;39.686;2023-09-30T05:33:53;100547.75;;;14.49;43.42
63343;BME280;49465;57.664;39.686;2023-09-30T05:36:24;100545.47;;;14.56;43.33
63343;BME280;49465;57.664;39.686;2023-09-30T05:38:56;100543.97;;;14.65;43.85
63343;BME280;49465;57.664;39.686;2023-09-30T05:41:37;100541.28;;;14.76;43.58
63343;BME280;49465;57.664;39.686;2023-09-30T05:44:11;100541.31;;;14.87;44.05
63343;BME280;49465;57.664;39.686;2023-09-30T05:46:49;100536.25;;;14.95;43.46
63343;BME280;49465;57.664;39.686;2023-09-30T05:49:25;100536.38;;;15.05;44.53
63343;BME280;49465;57.664;39.686;2023-09-30T05:52:03;100531.19;;;15.15;43.44
63343;BME280;49465;57.664;39.686;2023-09-30T05:54:34;100534.81;;;15.25;43.39
63343;BME280;49465;57.664;39.686;2023-09-30T05:57:03;100534.75;;;15.36;43.75
63343;BME280;49465;57.664;39.686;2023-09-30T05:59:32;100533.06;;;15.47;43.20
63343;BME280;49465;57.664;39.686;2023-09-30T06:02:03;100537.34;;;15.59;43.66
63343;BME280;49465;57.664;39.686;2023-09-30T06:04:33;100532.75;;;15.72;43.75
63343;BME280;49465;57.664;39.686;2023-09-30T06:07:01;100530.06;;;15.84;43.53
63343;BME280;49465;57.664;39.686;2023-09-30T06:09:36;100530.84;;;15.95;43.37
63343;BME280;49465;57.664;39.686;2023-09-30T06:12:02;100528.88;;;16.09;43.54
63343;BME280;49465;57.664;39.686;2023-09-30T06:14:32;100527.34;;;16.27;43.64
63343;BME280;49465;57.664;39.686;2023-09-30T06:17:01;100529.78;;;16.40;44.10
63343;BME280;49465;57.664;39.686;2023-09-30T06:19:28;100523.03;;;16.57;43.84
63343;BME280;49465;57.664;39.686;2023-09-30T06:21:57;100523.66;;;16.70;43.79
63343;BME280;49465;57.664;39.686;2023-09-30T06:24:29;100523.72;;;16.80;44.08
63343;BME280;49465;57.664;39.686;2023-09-30T06:26:58;100536.19;;;16.99;44.11
63343;BME280;49465;57.664;39.686;2023-09-30T06:29:24;100532.34;;;17.13;43.74
63343;BME280;49465;57.664;39.686;2023-09-30T06:31:55;100523.31;;;17.25;43.64
63343;BME280;49465;57.664;39.686;2023-09-30T06:34:24;100530.75;;;17.41;44.27
63343;BME280;49465;57.664;39.686;2023-09-30T06:36:51;100530.91;;;17.59;44.22
63343;BME280;49465;57.664;39.686;2023-09-30T06:39:22;100528.69;;;17.74;44.03
63343;BME280;49465;57.664;39.686;2023-09-30T06:41:49;100521.03;;;17.90;44.38
63343;BME280;49465;57.664;39.686;2023-09-30T06:44:25;100517.34;;;18.11;44.49
63343;BME280;49465;57.664;39.686;2023-09-30T06:47:03;100516.22;;;18.33;44.46
63343;BME280;49465;57.664;39.686;2023-09-30T06:49:34;100518.13;;;18.50;44.63
63343;BME280;49465;57.664;39.686;2023-09-30T06:52:03;100508.53;;;18.67;44.47
63343;BME280;49465;57.664;39.686;2023-09-30T06:54:38;100521.63;;;18.88;44.84
63343;BME280;49465;57.664;39.686;2023-09-30T06:57:07;100513.84;;;19.05;44.96
63343;BME280;49465;57.664;39.686;2023-09-30T06:59:37;100505.22;;;19.21;45.63
63343;BME280;49465;57.664;39.686;2023-09-30T07:02:06;100505.63;;;19.44;45.11
63343;BME280;49465;57.664;39.686;2023-09-30T07:04:38;100495.16;;;19.60;45.13
63343;BME280;49465;57.664;39.686;2023-09-30T07:07:26;100498.38;;;19.82;45.71
63343;BME280;49465;57.664;39.686;2023-09-30T07:10:01;100497.50;;;19.99;45.22
63343;BME280;49465;57.664;39.686;2023-09-30T07:12:31;100492.44;;;20.14;45.07
63343;BME280;49465;57.664;39.686;2023-09-30T07:15:01;100493.72;;;20.28;46.33
63343;BME280;49465;57.664;39.686;2023-09-30T07:17:37;100483.66;;;20.48;45.87
63343;BME280;49465;57.664;39.686;2023-09-30T07:20:09;100487.13;;;20.66;45.47
63343;BME280;49465;57.664;39.686;2023-09-30T07:22:41;100481.03;;;20.82;44.99
63343;BME280;49465;57.664;39.686;2023-09-30T07:25:16;100474.75;;;21.00;45.33
63343;BME280;49465;57.664;39.686;2023-09-30T07:27:50;100473.47;;;21.12;45.88
63343;BME280;49465;57.664;39.686;2023-09-30T07:30:28;100469.47;;;21.24;46.50
63343;BME280;49465;57.664;39.686;2023-09-30T07:33:07;100479.56;;;21.47;46.21
63343;BME280;49465;57.664;39.686;2023-09-30T07:35:37;100473.91;;;21.66;45.71
63343;BME280;49465;57.664;39.686;2023-09-30T07:38:10;100469.22;;;21.77;45.89
63343;BME280;49465;57.664;39.686;2023-09-30T07:40:42;100468.53;;;21.91;45.93
63343;BME280;49465;57.664;39.686;2023-09-30T07:43:14;100459.88;;;22.05;45.85
63343;BME280;49465;57.664;39.686;2023-09-30T07:45:46;100463.47;;;22.21;45.62
63343;BME280;49465;57.664;39.686;2023-09-30T07:48:20;100458.66;;;22.33;45.97
63343;BME280;49465;57.664;39.686;2023-09-30T07:50:58;100466.78;;;22.47;47.92
63343;BME280;49465;57.664;39.686;2023-09-30T07:53:29;100458.25;;;22.60;47.01
63343;BME280;49465;57.664;39.686;2023-09-30T07:56:00;100448.69;;;22.66;46.28
63343;BME280;49465;57.664;39.686;2023-09-30T07:58:34;100449.69;;;22.65;47.39
63343;BME280;49465;57.664;39.686;2023-09-30T08:01:07;100441.69;;;22.96;46.51
63343;BME280;49465;57.664;39.686;2023-09-30T08:03:33;100444.81;;;23.08;46.57
63343;BME280;49465;57.664;39.686;2023-09-30T08:06:07;100442.75;;;23.18;46.58
63343;BME280;49465;57.664;39.686;2023-09-30T08:08:42;100436.94;;;23.38;46.52
63343;BME280;49465;57.664;39.686;2023-09-30T08:11:20;100431.34;;;23.47;46.78
63343;BME280;49465;57.664;39.686;2023-09-30T08:13:46;100439.03;;;23.65;46.60
63343;BME280;49465;57.664;39.686;2023-09-30T08:16:17;100441.63;;;23.82;45.88
63343;BME280;49465;57.664;39.686;2023-09-30T08:18:46;100431.19;;;23.87;46.41
63343;BME280;49465;57.664;39.686;2023-09-30T08:21:16;100426.13;;;24.07;45.98
63343;BME280;49465;57.664;39.686;2023-09-30T08:23:42;100424.47;;;24.06;47.08
63343;BME280;49465;57.664;39.686;2023-09-30T08:26:11;100427.59;;;24.24;47.11
63343;BME280;49465;57.664;39.686;2023-09-30T08:28:40;100427.31;;;24.34;46.78
63343;BME280;49465;57.664;39.686;2023-09-30T08:31:14;100435.03;;;24.52;47.07
63343;BME280;49465;57.664;39.686;2023-09-30T08:33:40;100425.84;;;24.61;46.86
63343;BME280;49465;57.664;39.686;2023-09-30T08:36:20;100425.38;;;24.73;46.50
63343;BME280;49465;57.664;39.686;2023-09-30T08:38:47;100420.09;;;24.79;46.55
63343;BME280;49465;57.664;39.686;2023-09-30T08:44:11;100415.91;;;24.92;46.14
63343;BME280;49465;57.664;39.686;2023-09-30T08:46:38;100421.00;;;24.86;46.83
63343;BME280;49465;57.664;39.686;2023-09-30T08:49:05;100425.25;;;24.81;47.09
63343;BME280;49465;57.664;39.686;2023-09-30T08:51:32;100409.00;;;24.82;47.39
63343;BME280;49465;57.664;39.686;2023-09-30T08:53:59;100422.28;;;24.91;47.14
63343;BME280;49465;57.664;39.686;2023-09-30T08:56:32;100415.19;;;25.04;46.82
63343;BME280;49465;57.664;39.686;2023-09-30T08:59:01;100414.59;;;25.24;46.23
63343;BME280;49465;57.664;39.686;2023-09-30T09:01:31;100410.97;;;25.32;45.45
63343;BME280;49465;57.664;39.686;2023-09-30T09:03:57;100413.50;;;25.40;45.80
63343;BME280;49465;57.664;39.686;2023-09-30T09:06:26;100397.84;;;25.43;45.20
63343;BME280;49465;57.664;39.686;2023-09-30T09:08:53;100407.38;;;25.24;46.54
63343;BME280;49465;57.664;39.686;2023-09-30T09:11:21;100400.94;;;25.19;46.98
63343;BME280;49465;57.664;39.686;2023-09-30T09:13:57;100400.63;;;25.29;46.57
63343;BME280;49465;57.664;39.686;2023-09-30T09:16:26;100392.63;;;25.35;46.37
63343;BME280;49465;57.664;39.686;2023-09-30T09:18:52;100389.63;;;25.45;44.09
63343;BME280;49465;57.664;39.686;2023-09-30T09:21:21;100394.69;;;25.61;43.91
63343;BME280;49465;57.664;39.686;2023-09-30T09:23:53;100390.38;;;25.60;44.95
63343;BME280;49465;57.664;39.686;2023-09-30T09:26:23;100394.88;;;25.60;45.44
63343;BME280;49465;57.664;39.686;2023-09-30T09:28:59;100393.91;;;25.68;45.54
63343;BME280;49465;57.664;39.686;2023-09-30T09:31:31;100390.38;;;25.60;45.74
63343;BME280;49465;57.664;39.686;2023-09-30T09:34:03;100396.09;;;25.57;45.80
63343;BME280;49465;57.664;39.686;2023-09-30T09:36:43;100387.88;;;25.59;45.05
63343;BME280;49465;57.664;39.686;2023-09-30T09:39:10;100385.66;;;25.69;45.37
63343;BME280;49465;57.664;39.686;2023-09-30T09:41:54;100377.22;;;25.72;44.86
63343;BME280;49465;57.664;39.686;2023-09-30T09:44:23;100382.16;;;25.69;45.28
63343;BME280;49465;57.664;39.686;2023-09-30T09:46:57;100382.47;;;25.87;44.91
63343;BME280;49465;57.664;39.686;2023-09-30T09:49:24;100376.91;;;25.89;44.99
63343;BME280;49465;57.664;39.686;2023-09-30T09:51:51;100368.50;;;25.92;45.07
63343;BME280;49465;57.664;39.686;2023-09-30T09:54:20;100368.66;;;25.90;45.03
63343;BME280;49465;57.664;39.686;2023-09-30T09:56:50;100362.56;;;26.03;44.89
63343;BME280;49465;57.664;39.686;2023-09-30T09:59:19;100347.25;;;25.97;44.47
63343;BME280;49465;57.664;39.686;2023-09-30T10:01:48;100353.25;;;25.99;43.48
63343;BME280;49465;57.664;39.686;2023-09-30T10:04:16;100353.06;;;26.00;44.89
63343;BME280;49465;57.664;39.686;2023-09-30T10:06:51;100350.16;;;26.02;44.91
63343;BME280;49465;57.664;39.686;2023-09-30T10:09:21;100339.06;;;26.12;42.87
63343;BME280;49465;57.664;39.686;2023-09-30T10:11:50;100350.44;;;26.14;44.56
63343;BME280;49465;57.664;39.686;2023-09-30T10:14:33;100343.00;;;26.09;43.88
63343;BME280;49465;57.664;39.686;2023-09-30T10:17:02;100341.88;;;25.97;44.53
63343;BME280;49465;57.664;39.686;2023-09-30T10:19:29;100343.38;;;26.06;44.20
63343;BME280;49465;57.664;39.686;2023-09-30T10:22:19;100336.13;;;26.07;44.00
63343;BME280;49465;57.664;39.686;2023-09-30T10:24:52;100345.09;;;25.85;42.47
63343;BME280;49465;57.664;39.686;2023-09-30T10:30:08;100340.72;;;26.13;44.20
63343;BME280;49465;57.664;39.686;2023-09-30T10:37:45;100333.75;;;26.32;43.48
63343;BME280;49465;57.664;39.686;2023-09-30T10:40:28;100334.25;;;26.49;42.42
63343;BME280;49465;57.664;39.686;2023-09-30T10:42:54;100328.69;;;26.50;43.70
63343;BME280;49465;57.664;39.686;2023-09-30T10:50:57;100320.69;;;26.77;42.14
63343;BME280;49465;57.664;39.686;2023-09-30T10:53:26;100310.34;;;26.87;39.77
63343;BME280;49465;57.664;39.686;2023-09-30T10:55:58;100317.00;;;26.98;42.77
63343;BME280;49465;57.664;39.686;2023-09-30T11:01:10;100307.06;;;27.12;42.26
63343;BME280;49465;57.664;39.686;2023-09-30T11:03:41;100300.66;;;27.06;42.97
63343;BME280;49465;57.664;39.686;2023-09-30T11:06:07;100308.72;;;27.19;39.03
63343;BME280;49465;57.664;39.686;2023-09-30T11:08:41;100297.94;;;27.13;41.56
63343;BME280;49465;57.664;39.686;2023-09-30T11:11:13;100298.56;;;27.21;42.43
63343;BME280;49465;57.664;39.686;2023-09-30T11:13:42;100296.09;;;27.40;42.26
63343;BME280;49465;57.664;39.686;2023-09-30T11:16:11;100297.53;;;27.63;42.42
63343;BME280;49465;57.664;39.686;2023-09-30T11:18:37;100297.09;;;27.59;42.12
63343;BME280;49465;57.664;39.686;2023-09-30T11:21:04;100298.75;;;27.67;42.53
63343;BME280;49465;57.664;39.686;2023-09-30T11:23:33;100299.16;;;27.70;42.18
63343;BME280;49465;57.664;39.686;2023-09-30T11:26:00;100294.13;;;27.87;41.89
63343;BME280;49465;57.664;39.686;2023-09-30T11:28:35;100295.16;;;27.93;41.58
63343;BME280;49465;57.664;39.686;2023-09-30T11:31:01;100296.19;;;27.98;41.51
63343;BME280;49465;57.664;39.686;2023-09-30T11:33:31;100292.47;;;27.99;41.49
63343;BME280;49465;57.664;39.686;2023-09-30T11:36:01;100294.88;;;28.21;41.54
63343;BME280;49465;57.664;39.686;2023-09-30T11:38:30;100292.06;;;27.83;41.03
63343;BME280;49465;57.664;39.686;2023-09-30T11:41:02;100292.03;;;28.03;40.89
63343;BME280;49465;57.664;39.686;2023-09-30T11:43:33;100283.22;;;28.27;40.71
63343;BME280;49465;57.664;39.686;2023-09-30T11:46:08;100280.47;;;28.40;41.05
63343;BME280;49465;57.664;39.686;2023-09-30T11:48:35;100286.22;;;28.44;40.10
63343;BME280;49465;57.664;39.686;2023-09-30T11:51:04;100293.75;;;28.35;40.54
63343;BME280;49465;57.664;39.686;2023-09-30T11:53:31;100291.78;;;28.56;40.32
63343;BME280;49465;57.664;39.686;2023-09-30T11:55:57;100286.31;;;28.69;38.63
63343;BME280;49465;57.664;39.686;2023-09-30T11:58:27;100281.38;;;28.66;35.90
63343;BME280;49465;57.664;39.686;2023-09-30T12:00:54;100279.00;;;28.76;38.77
63343;BME280;49465;57.664;39.686;2023-09-30T12:03:20;100288.72;;;28.77;40.30
63343;BME280;49465;57.664;39.686;2023-09-30T12:05:47;100280.31;;;28.67;40.29
63343;BME280;49465;57.664;39.686;2023-09-30T12:08:17;100281.31;;;28.73;40.07
63343;BME280;49465;57.664;39.686;2023-09-30T12:10:43;100279.59;;;28.78;40.13
63343;BME280;49465;57.664;39.686;2023-09-30T12:13:10;100274.44;;;29.02;35.43
63343;BME280;49465;57.664;39.686;2023-09-30T12:15:37;100270.34;;;28.93;39.85
63343;BME280;49465;57.664;39.686;2023-09-30T12:18:04;100267.44;;;28.94;39.66
63343;BME280;49465;57.664;39.686;2023-09-30T12:20:31;100268.94;;;28.90;39.39
63343;BME280;49465;57.664;39.686;2023-09-30T12:22:57;100264.41;;;29.09;39.40
63343;BME280;49465;57.664;39.686;2023-09-30T12:25:23;100269.56;;;29.17;36.65
63343;BME280;49465;57.664;39.686;2023-09-30T12:27:51;100269.56;;;29.11;39.01
63343;BME280;49465;57.664;39.686;2023-09-30T12:30:17;100265.84;;;29.37;38.93
63343;BME280;49465;57.664;39.686;2023-09-30T12:32:49;100267.19;;;29.28;39.22
63343;BME280;49465;57.664;39.686;2023-09-30T12:35:15;100265.94;;;29.49;39.02
63343;BME280;49465;57.664;39.686;2023-09-30T12:37:42;100259.84;;;29.53;39.33
63343;BME280;49465;57.664;39.686;2023-09-30T12:40:11;100257.88;;;29.42;38.83
63343;BME280;49465;57.664;39.686;2023-09-30T12:42:40;100248.22;;;29.53;38.95
63343;BME280;49465;57.664;39.686;2023-09-30T12:45:06;100251.84;;;29.47;37.83
63343;BME280;49465;57.664;39.686;2023-09-30T12:47:32;100247.16;;;29.54;37.41
63343;BME280;49465;57.664;39.686;2023-09-30T12:50:03;100244.28;;;29.74;38.62
63343;BME280;49465;57.664;39.686;2023-09-30T12:52:29;100234.38;;;29.86;39.23
63343;BME280;49465;57.664;39.686;2023-09-30T12:54:57;100244.09;;;29.87;38.98
63343;BME280;49465;57.664;39.686;2023-09-30T12:57:24;100231.13;;;29.96;39.15
63343;BME280;49465;57.664;39.686;2023-09-30T12:59:50;100228.78;;;30.00;39.29
63343;BME280;49465;57.664;39.686;2023-09-30T13:02:16;100235.34;;;29.92;38.21
63343;BME280;49465;57.664;39.686;2023-09-30T13:04:46;100235.00;;;30.00;39.10
63343;BME280;49465;57.664;39.686;2023-09-30T13:07:15;100229.75;;;30.05;38.70
63343;BME280;49465;57.664;39.686;2023-09-30T13:09:43;100223.50;;;30.05;38.97
63343;BME280;49465;57.664;39.686;2023-09-30T13:12:09;100207.28;;;30.05;35.73
63343;BME280;49465;57.664;39.686;2023-09-30T13:14:38;100211.19;;;30.09;39.04